Observations for Trim Market St
| Time | AQI | Temp °C | Hum % | Pres Pa | CO μg/m³ | H₂S μg/m³ | NO μg/m³ | NO₂ μg/m³ | O₃ μg/m³ | SO₂ μg/m³ | PM1 μg/m³ | PM2.5 μg/m³ | PM10 μg/m³ |
|---|---|---|---|---|---|---|---|---|---|---|---|---|---|
| Wednesday 12 August 2026 | |||||||||||||
| 00:06 | 2 | 21.4 | 54 | 56,483 | 0 | 0 | 1.24 | 22.43 | 59.43 | 0 | 0.71 | 3.29 | 4.64 |
| 00:05 | 2 | 21.4 | 54 | 56,454 | 0 | 0 | 1.23 | 20.13 | 61.3 | 0 | 1.43 | 3.81 | 4.64 |
| 00:04 | 2 | 21.4 | 54 | 56,440 | 0 | 0 | 1.23 | 12.49 | 60.87 | 0 | 0.71 | 3.3 | 3.92 |
| Tuesday 11 August 2026 | |||||||||||||
| 23:53 | 2 | 21.6 | 53 | 56,222 | 0 | 0 | 1.25 | 19.62 | 59.65 | 0 | 0.71 | 2.82 | 3.9 |
| 23:52 | 2 | 21.6 | 53 | 56,193 | 0 | 0 | 1.25 | 12.25 | 44.29 | 0 | 0.71 | 3.33 | 5.35 |
| 23:51 | 2 | 21.6 | 53 | 56,174 | 0 | 0 | 1.28 | 39.2 | 61.66 | 0 | 0.71 | 3.33 | 3.9 |
| 23:50 | 2 | 21.6 | 53 | 56,101 | 0 | 0 | 1.29 | 19.23 | 57.64 | 0 | 1.43 | 3.85 | 4.62 |
| 23:49 | 2 | 21.6 | 53 | 56,077 | 0 | 0 | 1.28 | 19.85 | 63.07 | 0 | 0.71 | 3.85 | 4.62 |
| 23:48 | 2 | 21.6 | 53 | 56,065 | 0 | 0 | 1.27 | 16.92 | 57.67 | 0 | 1.43 | 3.86 | 4.62 |
| 23:47 | 2 | 21.6 | 53 | 56,041 | 0 | 0 | 1.25 | 19.49 | 58.89 | 0 | 1.43 | 3.35 | 3.89 |
| 23:46 | 2 | 21.6 | 53 | 56,029 | 0 | 0 | 1.24 | 17.84 | 58.28 | 0 | 0 | 2.33 | 2.43 |
| 23:43 | 2 | 21.6 | 53 | 55,985 | 0 | 0 | 1.27 | 23.11 | 61.78 | 0 | 0.71 | 3.35 | 3.88 |
| 23:40 | 2 | 21.7 | 53 | 55,915 | 0 | 0 | 1.28 | 14.51 | 60.82 | 0 | 0.71 | 2.84 | 3.15 |
| 23:38 | 2 | 21.7 | 53 | 55,912 | 0 | 0 | 1.26 | 19.68 | 58.97 | 0 | 0.71 | 3.36 | 3.88 |
| 23:36 | 2 | 21.7 | 52 | 55,831 | 0 | 0 | 1.29 | 30.85 | 59.42 | 0 | 0.71 | 2.86 | 3.14 |
| 23:35 | 2 | 21.7 | 52 | 55,773 | 0 | 0 | 1.29 | 27.09 | 61.12 | 0 | 0.71 | 3.38 | 3.87 |
| 23:33 | 2 | 21.7 | 52 | 55,743 | 0 | 0 | 1.28 | 15.8 | 60.57 | 0 | 0.71 | 2.87 | 3.13 |
| 23:23 | 2 | 21.9 | 52 | 55,812 | 0 | 0 | 1.29 | 22.8 | 56.8 | 0 | 1.43 | 3.4 | 3.85 |
| 23:22 | 2 | 21.9 | 52 | 55,839 | 0 | 0 | 1.28 | 17.7 | 61.58 | 0 | 1.43 | 3.92 | 4.58 |
| 23:21 | 2 | 21.9 | 52 | 55,906 | 0 | 0 | 1.27 | 19.04 | 63.3 | 0 | 2.14 | 4.43 | 6.06 |